Adrar, Algeria
Current Conditions -  °F | °C
As of 1:00 PM on Thursday 23 Oct 2014 (Local Time) from DAUA Reporting Station
Clear Clear  
Wind Chill: 90°   Ceiling: Unl
Heat Index: 90°   Visibility: 6mi
Dew Point: 50°   Wind: 6mph
Humidity: 26%   Direction: 360°N
Pressure: 30.06"   Gusts: NA
Location:  27.87°N, 0.29°W
Report Text: DAUA 231200Z 36005KT CAVOK 32/10 Q1018
Loading
Personal Weather Stations






























Interactive Weather Map
Tropical Storm Tracking
New forecast layout! Learn more

10-Day Weather Forecast

Advertisements
Track Severe Weather on mobile